sensor_id;sensor_type;location;lat;lon;timestamp;temperature;humidity
21662;DHT22;10992;48.170;8.596;2023-05-15T00:00:49;6.10;99.90
21662;DHT22;10992;48.170;8.596;2023-05-15T00:03:16;6.00;99.90
21662;DHT22;10992;48.170;8.596;2023-05-15T00:05:44;6.10;99.90
21662;DHT22;10992;48.170;8.596;2023-05-15T00:08:10;6.10;99.90
21662;DHT22;10992;48.170;8.596;2023-05-15T00:10:37;6.30;99.90
21662;DHT22;10992;48.170;8.596;2023-05-15T00:13:10;6.30;99.90
21662;DHT22;10992;48.170;8.596;2023-05-15T00:15:37;6.50;99.90
21662;DHT22;10992;48.170;8.596;2023-05-15T00:18:04;6.50;99.90
21662;DHT22;10992;48.170;8.596;2023-05-15T00:20:31;6.50;99.90
21662;DHT22;10992;48.170;8.596;2023-05-15T00:22:58;6.40;99.90
21662;DHT22;10992;48.170;8.596;2023-05-15T00:25:25;6.20;99.90
21662;DHT22;10992;48.170;8.596;2023-05-15T00:27:52;6.10;99.90
21662;DHT22;10992;48.170;8.596;2023-05-15T00:30:19;6.10;99.90
21662;DHT22;10992;48.170;8.596;2023-05-15T00:32:45;6.00;99.90
21662;DHT22;10992;48.170;8.596;2023-05-15T00:35:12;6.00;99.90
21662;DHT22;10992;48.170;8.596;2023-05-15T00:37:39;6.00;99.90
21662;DHT22;10992;48.170;8.596;2023-05-15T00:40:08;5.90;99.90
21662;DHT22;10992;48.170;8.596;2023-05-15T00:42:36;5.80;99.90
21662;DHT22;10992;48.170;8.596;2023-05-15T00:45:04;5.70;99.90
21662;DHT22;10992;48.170;8.596;2023-05-15T00:47:34;5.60;99.90
21662;DHT22;10992;48.170;8.596;2023-05-15T00:50:02;5.60;99.90
21662;DHT22;10992;48.170;8.596;2023-05-15T00:52:29;5.50;99.90
21662;DHT22;10992;48.170;8.596;2023-05-15T00:54:57;5.50;99.90
21662;DHT22;10992;48.170;8.596;2023-05-15T00:57:24;5.50;99.90
21662;DHT22;10992;48.170;8.596;2023-05-15T00:59:53;5.70;99.90
21662;DHT22;10992;48.170;8.596;2023-05-15T01:02:23;5.70;99.90
21662;DHT22;10992;48.170;8.596;2023-05-15T01:04:50;5.70;99.90
21662;DHT22;10992;48.170;8.596;2023-05-15T01:07:17;5.70;99.90
21662;DHT22;10992;48.170;8.596;2023-05-15T01:09:46;5.80;99.90
21662;DHT22;10992;48.170;8.596;2023-05-15T01:12:16;5.90;99.90
21662;DHT22;10992;48.170;8.596;2023-05-15T01:14:44;5.90;99.90
21662;DHT22;10992;48.170;8.596;2023-05-15T01:17:11;6.00;99.90
21662;DHT22;10992;48.170;8.596;2023-05-15T01:19:39;6.10;99.90
21662;DHT22;10992;48.170;8.596;2023-05-15T01:25:21;6.10;99.90
21662;DHT22;10992;48.170;8.596;2023-05-15T01:27:57;6.10;99.90
21662;DHT22;10992;48.170;8.596;2023-05-15T01:30:30;6.10;99.90
21662;DHT22;10992;48.170;8.596;2023-05-15T01:33:05;6.10;99.90
21662;DHT22;10992;48.170;8.596;2023-05-15T01:35:44;6.20;99.90
21662;DHT22;10992;48.170;8.596;2023-05-15T01:40:57;6.30;99.90
21662;DHT22;10992;48.170;8.596;2023-05-15T01:43:28;6.30;99.90
21662;DHT22;10992;48.170;8.596;2023-05-15T01:45:57;6.40;99.90
21662;DHT22;10992;48.170;8.596;2023-05-15T01:48:25;6.40;99.90
21662;DHT22;10992;48.170;8.596;2023-05-15T01:51:00;6.50;99.90
21662;DHT22;10992;48.170;8.596;2023-05-15T01:53:30;6.50;99.90
21662;DHT22;10992;48.170;8.596;2023-05-15T01:55:58;6.60;99.90
21662;DHT22;10992;48.170;8.596;2023-05-15T01:58:26;6.60;99.90
21662;DHT22;10992;48.170;8.596;2023-05-15T02:00:54;6.60;99.90
21662;DHT22;10992;48.170;8.596;2023-05-15T02:03:22;6.60;99.90
21662;DHT22;10992;48.170;8.596;2023-05-15T02:05:50;6.70;99.90
21662;DHT22;10992;48.170;8.596;2023-05-15T02:08:19;6.80;99.90
21662;DHT22;10992;48.170;8.596;2023-05-15T02:10:48;6.70;99.90
21662;DHT22;10992;48.170;8.596;2023-05-15T02:13:19;6.60;99.90
21662;DHT22;10992;48.170;8.596;2023-05-15T02:15:47;6.60;99.90
21662;DHT22;10992;48.170;8.596;2023-05-15T02:18:14;6.60;99.90
21662;DHT22;10992;48.170;8.596;2023-05-15T02:20:41;6.60;99.90
21662;DHT22;10992;48.170;8.596;2023-05-15T02:23:08;6.60;99.90
21662;DHT22;10992;48.170;8.596;2023-05-15T02:36:46;6.60;99.90
21662;DHT22;10992;48.170;8.596;2023-05-15T02:39:15;6.50;99.90
21662;DHT22;10992;48.170;8.596;2023-05-15T02:41:44;6.50;99.90
21662;DHT22;10992;48.170;8.596;2023-05-15T02:44:14;6.50;99.90
21662;DHT22;10992;48.170;8.596;2023-05-15T02:46:43;6.40;99.90
21662;DHT22;10992;48.170;8.596;2023-05-15T02:49:11;6.40;99.90
21662;DHT22;10992;48.170;8.596;2023-05-15T02:51:39;6.30;99.90
21662;DHT22;10992;48.170;8.596;2023-05-15T02:54:06;6.30;99.90
21662;DHT22;10992;48.170;8.596;2023-05-15T02:56:34;6.40;99.90
21662;DHT22;10992;48.170;8.596;2023-05-15T02:59:01;6.40;99.90
21662;DHT22;10992;48.170;8.596;2023-05-15T03:01:28;6.40;99.90
21662;DHT22;10992;48.170;8.596;2023-05-15T03:03:55;6.50;99.90
21662;DHT22;10992;48.170;8.596;2023-05-15T03:06:22;6.50;99.90
21662;DHT22;10992;48.170;8.596;2023-05-15T03:08:49;6.50;99.90
21662;DHT22;10992;48.170;8.596;2023-05-15T03:11:15;6.50;99.90
21662;DHT22;10992;48.170;8.596;2023-05-15T03:13:44;6.60;99.90
21662;DHT22;10992;48.170;8.596;2023-05-15T03:16:11;6.60;99.90
21662;DHT22;10992;48.170;8.596;2023-05-15T03:18:38;6.60;99.90
21662;DHT22;10992;48.170;8.596;2023-05-15T03:21:05;6.60;99.90
21662;DHT22;10992;48.170;8.596;2023-05-15T03:23:32;6.70;99.90
21662;DHT22;10992;48.170;8.596;2023-05-15T03:26:02;6.70;99.90
21662;DHT22;10992;48.170;8.596;2023-05-15T03:28:29;6.60;99.90
21662;DHT22;10992;48.170;8.596;2023-05-15T03:30:56;6.70;99.90
21662;DHT22;10992;48.170;8.596;2023-05-15T03:33:23;6.80;99.90
21662;DHT22;10992;48.170;8.596;2023-05-15T03:35:50;6.80;99.90
21662;DHT22;10992;48.170;8.596;2023-05-15T03:38:18;6.80;99.90
21662;DHT22;10992;48.170;8.596;2023-05-15T03:40:45;6.90;99.90
21662;DHT22;10992;48.170;8.596;2023-05-15T03:43:15;6.90;99.90
21662;DHT22;10992;48.170;8.596;2023-05-15T03:45:43;6.90;99.90
21662;DHT22;10992;48.170;8.596;2023-05-15T03:48:10;6.80;99.90
21662;DHT22;10992;48.170;8.596;2023-05-15T03:50:36;6.80;99.90
21662;DHT22;10992;48.170;8.596;2023-05-15T03:55:32;6.80;99.90
21662;DHT22;10992;48.170;8.596;2023-05-15T03:57:59;6.80;99.90
21662;DHT22;10992;48.170;8.596;2023-05-15T04:00:26;6.80;99.90
21662;DHT22;10992;48.170;8.596;2023-05-15T04:02:53;6.90;99.90
21662;DHT22;10992;48.170;8.596;2023-05-15T04:05:20;6.90;99.90
21662;DHT22;10992;48.170;8.596;2023-05-15T04:07:48;6.90;99.90
21662;DHT22;10992;48.170;8.596;2023-05-15T04:10:15;6.90;99.90
21662;DHT22;10992;48.170;8.596;2023-05-15T04:12:42;6.90;99.90
21662;DHT22;10992;48.170;8.596;2023-05-15T04:15:27;6.90;99.90
21662;DHT22;10992;48.170;8.596;2023-05-15T04:17:54;7.00;99.90
21662;DHT22;10992;48.170;8.596;2023-05-15T04:20:22;7.00;99.90
21662;DHT22;10992;48.170;8.596;2023-05-15T04:22:50;7.00;99.90
21662;DHT22;10992;48.170;8.596;2023-05-15T04:25:17;7.00;99.90
21662;DHT22;10992;48.170;8.596;2023-05-15T04:27:45;7.00;99.90
21662;DHT22;10992;48.170;8.596;2023-05-15T04:30:12;7.10;99.90
21662;DHT22;10992;48.170;8.596;2023-05-15T04:32:39;7.20;99.90
21662;DHT22;10992;48.170;8.596;2023-05-15T04:35:07;7.30;99.90
21662;DHT22;10992;48.170;8.596;2023-05-15T04:37:37;7.30;99.90
21662;DHT22;10992;48.170;8.596;2023-05-15T04:40:04;7.40;99.90
21662;DHT22;10992;48.170;8.596;2023-05-15T04:42:37;7.40;99.90
21662;DHT22;10992;48.170;8.596;2023-05-15T04:45:06;7.50;99.90
21662;DHT22;10992;48.170;8.596;2023-05-15T04:47:33;7.50;99.90
21662;DHT22;10992;48.170;8.596;2023-05-15T04:50:01;7.40;99.90
21662;DHT22;10992;48.170;8.596;2023-05-15T04:52:28;7.40;99.90
21662;DHT22;10992;48.170;8.596;2023-05-15T04:54:55;7.50;99.90
21662;DHT22;10992;48.170;8.596;2023-05-15T04:57:21;7.50;99.90
21662;DHT22;10992;48.170;8.596;2023-05-15T04:59:48;7.50;99.90
21662;DHT22;10992;48.170;8.596;2023-05-15T05:02:19;7.60;99.90
21662;DHT22;10992;48.170;8.596;2023-05-15T05:04:47;7.60;99.90
21662;DHT22;10992;48.170;8.596;2023-05-15T05:07:14;7.70;99.90
21662;DHT22;10992;48.170;8.596;2023-05-15T05:09:41;7.50;99.90
21662;DHT22;10992;48.170;8.596;2023-05-15T05:12:08;7.60;99.90
21662;DHT22;10992;48.170;8.596;2023-05-15T05:14:35;7.60;99.90
21662;DHT22;10992;48.170;8.596;2023-05-15T05:17:03;7.70;99.90
21662;DHT22;10992;48.170;8.596;2023-05-15T05:19:30;7.70;99.90
21662;DHT22;10992;48.170;8.596;2023-05-15T05:21:56;7.70;99.90
21662;DHT22;10992;48.170;8.596;2023-05-15T05:24:26;7.80;99.90
21662;DHT22;10992;48.170;8.596;2023-05-15T05:26:54;7.90;99.90
21662;DHT22;10992;48.170;8.596;2023-05-15T05:29:24;7.90;99.90
21662;DHT22;10992;48.170;8.596;2023-05-15T05:31:52;7.80;99.90
21662;DHT22;10992;48.170;8.596;2023-05-15T05:34:19;7.90;99.90
21662;DHT22;10992;48.170;8.596;2023-05-15T05:36:46;7.90;99.90
21662;DHT22;10992;48.170;8.596;2023-05-15T05:39:13;7.90;99.90
21662;DHT22;10992;48.170;8.596;2023-05-15T05:41:42;8.00;99.90
21662;DHT22;10992;48.170;8.596;2023-05-15T05:44:09;8.10;99.90
21662;DHT22;10992;48.170;8.596;2023-05-15T05:46:36;8.20;99.90
21662;DHT22;10992;48.170;8.596;2023-05-15T05:49:03;8.30;99.90
21662;DHT22;10992;48.170;8.596;2023-05-15T05:51:30;8.30;99.90
21662;DHT22;10992;48.170;8.596;2023-05-15T05:53:57;8.40;99.90
21662;DHT22;10992;48.170;8.596;2023-05-15T05:56:24;8.50;99.90
21662;DHT22;10992;48.170;8.596;2023-05-15T05:58:52;8.60;99.90
21662;DHT22;10992;48.170;8.596;2023-05-15T06:01:20;8.80;99.90
21662;DHT22;10992;48.170;8.596;2023-05-15T06:03:47;8.90;99.90
21662;DHT22;10992;48.170;8.596;2023-05-15T06:06:14;9.10;99.90
21662;DHT22;10992;48.170;8.596;2023-05-15T06:08:40;9.20;99.90
21662;DHT22;10992;48.170;8.596;2023-05-15T06:11:07;9.40;99.90
21662;DHT22;10992;48.170;8.596;2023-05-15T06:13:34;9.50;99.90
21662;DHT22;10992;48.170;8.596;2023-05-15T06:16:01;9.80;99.90
21662;DHT22;10992;48.170;8.596;2023-05-15T06:18:29;9.90;99.90
21662;DHT22;10992;48.170;8.596;2023-05-15T06:20:56;10.20;99.90
21662;DHT22;10992;48.170;8.596;2023-05-15T06:23:26;10.60;99.90
21662;DHT22;10992;48.170;8.596;2023-05-15T06:25:53;10.80;99.90
21662;DHT22;10992;48.170;8.596;2023-05-15T06:28:20;10.80;99.90
21662;DHT22;10992;48.170;8.596;2023-05-15T06:30:47;10.80;99.90
21662;DHT22;10992;48.170;8.596;2023-05-15T06:33:14;10.60;99.90
21662;DHT22;10992;48.170;8.596;2023-05-15T06:35:41;10.50;99.90
21662;DHT22;10992;48.170;8.596;2023-05-15T06:38:08;10.30;99.90
21662;DHT22;10992;48.170;8.596;2023-05-15T06:40:34;10.30;99.90
21662;DHT22;10992;48.170;8.596;2023-05-15T06:43:01;10.10;99.90
21662;DHT22;10992;48.170;8.596;2023-05-15T06:45:29;10.10;99.90
21662;DHT22;10992;48.170;8.596;2023-05-15T06:47:56;10.10;99.90
21662;DHT22;10992;48.170;8.596;2023-05-15T06:50:27;10.00;99.90
21662;DHT22;10992;48.170;8.596;2023-05-15T06:52:54;9.90;99.90
21662;DHT22;10992;48.170;8.596;2023-05-15T06:55:20;10.00;99.90
21662;DHT22;10992;48.170;8.596;2023-05-15T06:57:47;10.10;99.90
21662;DHT22;10992;48.170;8.596;2023-05-15T07:00:14;10.00;99.90
21662;DHT22;10992;48.170;8.596;2023-05-15T07:02:41;10.00;99.90
21662;DHT22;10992;48.170;8.596;2023-05-15T07:05:09;10.10;99.90
21662;DHT22;10992;48.170;8.596;2023-05-15T07:07:37;10.20;99.90
21662;DHT22;10992;48.170;8.596;2023-05-15T07:10:04;10.30;99.90
21662;DHT22;10992;48.170;8.596;2023-05-15T07:12:31;10.50;99.90
21662;DHT22;10992;48.170;8.596;2023-05-15T07:14:59;10.70;99.90
21662;DHT22;10992;48.170;8.596;2023-05-15T07:17:26;11.00;99.90
21662;DHT22;10992;48.170;8.596;2023-05-15T07:19:53;11.10;99.90
21662;DHT22;10992;48.170;8.596;2023-05-15T07:22:20;11.30;99.90
21662;DHT22;10992;48.170;8.596;2023-05-15T07:24:47;11.40;99.90
21662;DHT22;10992;48.170;8.596;2023-05-15T07:27:14;11.20;99.90
21662;DHT22;10992;48.170;8.596;2023-05-15T07:29:41;11.30;99.90
21662;DHT22;10992;48.170;8.596;2023-05-15T07:32:07;11.70;99.90
21662;DHT22;10992;48.170;8.596;2023-05-15T07:34:34;11.90;99.90
21662;DHT22;10992;48.170;8.596;2023-05-15T07:37:01;11.90;99.90
21662;DHT22;10992;48.170;8.596;2023-05-15T07:39:28;12.50;99.90
21662;DHT22;10992;48.170;8.596;2023-05-15T07:41:55;12.60;99.90
21662;DHT22;10992;48.170;8.596;2023-05-15T07:44:22;12.80;99.90
21662;DHT22;10992;48.170;8.596;2023-05-15T07:46:49;13.40;99.90
21662;DHT22;10992;48.170;8.596;2023-05-15T07:49:16;14.00;99.90
21662;DHT22;10992;48.170;8.596;2023-05-15T07:51:43;15.10;99.90
21662;DHT22;10992;48.170;8.596;2023-05-15T07:54:10;16.30;99.90
21662;DHT22;10992;48.170;8.596;2023-05-15T07:56:37;16.30;99.90
21662;DHT22;10992;48.170;8.596;2023-05-15T07:59:04;16.90;99.90
21662;DHT22;10992;48.170;8.596;2023-05-15T08:01:31;17.30;99.90
21662;DHT22;10992;48.170;8.596;2023-05-15T08:03:58;17.00;99.90
21662;DHT22;10992;48.170;8.596;2023-05-15T08:06:26;16.60;99.90
21662;DHT22;10992;48.170;8.596;2023-05-15T08:08:52;17.30;99.90
21662;DHT22;10992;48.170;8.596;2023-05-15T08:11:19;17.30;99.90
21662;DHT22;10992;48.170;8.596;2023-05-15T08:13:47;17.70;99.90
21662;DHT22;10992;48.170;8.596;2023-05-15T08:16:14;17.20;99.90
21662;DHT22;10992;48.170;8.596;2023-05-15T08:18:41;17.50;99.90
21662;DHT22;10992;48.170;8.596;2023-05-15T08:21:11;17.80;99.90
21662;DHT22;10992;48.170;8.596;2023-05-15T08:23:38;17.90;99.90
21662;DHT22;10992;48.170;8.596;2023-05-15T08:26:04;18.20;99.90
21662;DHT22;10992;48.170;8.596;2023-05-15T08:28:32;18.30;99.90
21662;DHT22;10992;48.170;8.596;2023-05-15T08:30:59;17.80;99.90
21662;DHT22;10992;48.170;8.596;2023-05-15T08:33:26;17.20;99.90
21662;DHT22;10992;48.170;8.596;2023-05-15T08:35:53;17.20;99.90
21662;DHT22;10992;48.170;8.596;2023-05-15T08:38:20;17.10;99.90
21662;DHT22;10992;48.170;8.596;2023-05-15T08:40:49;16.10;99.90
21662;DHT22;10992;48.170;8.596;2023-05-15T08:43:17;16.20;99.90
21662;DHT22;10992;48.170;8.596;2023-05-15T08:45:44;16.30;99.90
21662;DHT22;10992;48.170;8.596;2023-05-15T08:48:16;16.30;99.90
21662;DHT22;10992;48.170;8.596;2023-05-15T08:50:43;16.70;99.90
21662;DHT22;10992;48.170;8.596;2023-05-15T08:53:13;16.40;99.90
21662;DHT22;10992;48.170;8.596;2023-05-15T08:55:41;16.50;99.90
21662;DHT22;10992;48.170;8.596;2023-05-15T08:58:08;16.10;99.90
21662;DHT22;10992;48.170;8.596;2023-05-15T09:00:35;16.00;99.90
21662;DHT22;10992;48.170;8.596;2023-05-15T09:03:03;16.40;99.90
21662;DHT22;10992;48.170;8.596;2023-05-15T09:05:30;17.20;99.90
21662;DHT22;10992;48.170;8.596;2023-05-15T09:07:58;17.90;99.90
21662;DHT22;10992;48.170;8.596;2023-05-15T09:10:25;18.70;99.90
21662;DHT22;10992;48.170;8.596;2023-05-15T09:12:53;19.00;99.90
21662;DHT22;10992;48.170;8.596;2023-05-15T09:15:22;18.80;99.90
21662;DHT22;10992;48.170;8.596;2023-05-15T09:17:51;18.70;99.90
21662;DHT22;10992;48.170;8.596;2023-05-15T09:20:25;19.00;99.90
21662;DHT22;10992;48.170;8.596;2023-05-15T09:22:53;18.70;99.90
21662;DHT22;10992;48.170;8.596;2023-05-15T09:28:00;18.00;99.90
21662;DHT22;10992;48.170;8.596;2023-05-15T09:30:27;18.40;99.90
21662;DHT22;10992;48.170;8.596;2023-05-15T09:33:00;18.80;99.90
21662;DHT22;10992;48.170;8.596;2023-05-15T09:35:37;18.30;99.90
21662;DHT22;10992;48.170;8.596;2023-05-15T09:38:09;17.60;99.90
21662;DHT22;10992;48.170;8.596;2023-05-15T09:40:37;17.50;99.90
21662;DHT22;10992;48.170;8.596;2023-05-15T09:43:05;17.70;99.90
21662;DHT22;10992;48.170;8.596;2023-05-15T09:45:32;17.70;99.90
21662;DHT22;10992;48.170;8.596;2023-05-15T09:47:59;19.30;99.90
21662;DHT22;10992;48.170;8.596;2023-05-15T09:50:35;19.80;99.90
21662;DHT22;10992;48.170;8.596;2023-05-15T09:53:03;18.90;99.90
21662;DHT22;10992;48.170;8.596;2023-05-15T09:55:33;18.20;99.90
21662;DHT22;10992;48.170;8.596;2023-05-15T09:58:14;17.70;99.90
21662;DHT22;10992;48.170;8.596;2023-05-15T10:00:42;16.90;99.90
21662;DHT22;10992;48.170;8.596;2023-05-15T10:03:16;16.60;99.90
21662;DHT22;10992;48.170;8.596;2023-05-15T10:05:43;16.60;99.90
21662;DHT22;10992;48.170;8.596;2023-05-15T10:08:10;15.90;99.90
21662;DHT22;10992;48.170;8.596;2023-05-15T10:10:38;14.30;99.90
21662;DHT22;10992;48.170;8.596;2023-05-15T10:13:06;12.90;99.90
21662;DHT22;10992;48.170;8.596;2023-05-15T10:15:34;11.90;99.90
21662;DHT22;10992;48.170;8.596;2023-05-15T10:18:03;11.20;99.90
21662;DHT22;10992;48.170;8.596;2023-05-15T10:20:32;10.70;99.90
21662;DHT22;10992;48.170;8.596;2023-05-15T10:23:03;10.20;99.90
21662;DHT22;10992;48.170;8.596;2023-05-15T10:28:01;9.70;99.90
21662;DHT22;10992;48.170;8.596;2023-05-15T10:30:30;9.60;99.90
21662;DHT22;10992;48.170;8.596;2023-05-15T10:32:58;9.50;99.90
21662;DHT22;10992;48.170;8.596;2023-05-15T10:35:27;9.40;99.90
21662;DHT22;10992;48.170;8.596;2023-05-15T10:37:54;9.40;99.90
21662;DHT22;10992;48.170;8.596;2023-05-15T10:40:23;9.40;99.90
21662;DHT22;10992;48.170;8.596;2023-05-15T10:42:51;9.50;99.90
21662;DHT22;10992;48.170;8.596;2023-05-15T10:45:20;9.50;99.90
21662;DHT22;10992;48.170;8.596;2023-05-15T10:47:47;9.70;99.90
21662;DHT22;10992;48.170;8.596;2023-05-15T10:50:15;10.00;99.90
21662;DHT22;10992;48.170;8.596;2023-05-15T10:52:42;10.40;99.90
21662;DHT22;10992;48.170;8.596;2023-05-15T10:55:13;10.70;99.90
21662;DHT22;10992;48.170;8.596;2023-05-15T10:57:43;11.20;99.90
21662;DHT22;10992;48.170;8.596;2023-05-15T11:00:29;11.70;99.90
21662;DHT22;10992;48.170;8.596;2023-05-15T11:02:59;11.90;99.90
21662;DHT22;10992;48.170;8.596;2023-05-15T11:05:26;12.10;99.90
21662;DHT22;10992;48.170;8.596;2023-05-15T11:10:47;13.10;99.90
21662;DHT22;10992;48.170;8.596;2023-05-15T11:13:14;13.50;99.90
21662;DHT22;10992;48.170;8.596;2023-05-15T11:15:42;14.30;99.90
21662;DHT22;10992;48.170;8.596;2023-05-15T11:18:09;14.50;99.90
21662;DHT22;10992;48.170;8.596;2023-05-15T11:20:39;15.00;99.90
21662;DHT22;10992;48.170;8.596;2023-05-15T11:23:07;14.50;99.90
21662;DHT22;10992;48.170;8.596;2023-05-15T11:25:35;13.90;99.90
21662;DHT22;10992;48.170;8.596;2023-05-15T11:28:03;14.30;99.90
21662;DHT22;10992;48.170;8.596;2023-05-15T11:30:34;15.70;99.90
21662;DHT22;10992;48.170;8.596;2023-05-15T11:33:06;15.90;99.90
21662;DHT22;10992;48.170;8.596;2023-05-15T11:35:45;16.00;99.90
21662;DHT22;10992;48.170;8.596;2023-05-15T11:38:22;15.10;99.90
21662;DHT22;10992;48.170;8.596;2023-05-15T11:40:59;15.10;99.90
21662;DHT22;10992;48.170;8.596;2023-05-15T11:43:35;15.40;99.90
21662;DHT22;10992;48.170;8.596;2023-05-15T11:46:06;14.80;99.90
21662;DHT22;10992;48.170;8.596;2023-05-15T11:48:37;14.70;99.90
21662;DHT22;10992;48.170;8.596;2023-05-15T11:51:21;14.50;99.90
21662;DHT22;10992;48.170;8.596;2023-05-15T11:53:50;14.20;99.90
21662;DHT22;10992;48.170;8.596;2023-05-15T11:56:19;14.10;99.90
21662;DHT22;10992;48.170;8.596;2023-05-15T11:58:47;14.00;99.90
21662;DHT22;10992;48.170;8.596;2023-05-15T12:01:15;14.50;99.90
21662;DHT22;10992;48.170;8.596;2023-05-15T12:03:42;14.90;99.90
21662;DHT22;10992;48.170;8.596;2023-05-15T12:06:10;14.90;99.90
21662;DHT22;10992;48.170;8.596;2023-05-15T12:08:37;14.70;99.90
21662;DHT22;10992;48.170;8.596;2023-05-15T12:11:05;14.90;99.90
21662;DHT22;10992;48.170;8.596;2023-05-15T12:13:32;14.80;99.90
21662;DHT22;10992;48.170;8.596;2023-05-15T12:16:03;15.30;99.90
21662;DHT22;10992;48.170;8.596;2023-05-15T12:18:31;15.20;99.90
21662;DHT22;10992;48.170;8.596;2023-05-15T12:20:59;15.50;99.90
21662;DHT22;10992;48.170;8.596;2023-05-15T12:23:26;16.10;99.90
21662;DHT22;10992;48.170;8.596;2023-05-15T12:25:58;16.50;99.90
21662;DHT22;10992;48.170;8.596;2023-05-15T12:28:27;16.60;99.90
21662;DHT22;10992;48.170;8.596;2023-05-15T12:30:55;17.10;99.90
21662;DHT22;10992;48.170;8.596;2023-05-15T12:33:22;17.50;99.90
21662;DHT22;10992;48.170;8.596;2023-05-15T12:35:54;17.80;99.90
21662;DHT22;10992;48.170;8.596;2023-05-15T12:38:26;17.70;99.90
21662;DHT22;10992;48.170;8.596;2023-05-15T12:40:53;17.50;99.90
21662;DHT22;10992;48.170;8.596;2023-05-15T12:43:23;17.40;99.90
21662;DHT22;10992;48.170;8.596;2023-05-15T12:45:54;17.70;99.90
21662;DHT22;10992;48.170;8.596;2023-05-15T12:48:22;18.10;99.90
21662;DHT22;10992;48.170;8.596;2023-05-15T12:50:49;17.20;99.90
21662;DHT22;10992;48.170;8.596;2023-05-15T12:53:16;17.60;99.90
21662;DHT22;10992;48.170;8.596;2023-05-15T12:55:44;17.60;99.90
21662;DHT22;10992;48.170;8.596;2023-05-15T12:58:14;18.00;99.90
21662;DHT22;10992;48.170;8.596;2023-05-15T13:00:41;18.20;99.90
21662;DHT22;10992;48.170;8.596;2023-05-15T13:03:12;18.40;99.90
21662;DHT22;10992;48.170;8.596;2023-05-15T13:05:43;18.00;99.90
21662;DHT22;10992;48.170;8.596;2023-05-15T13:08:15;18.30;99.90
21662;DHT22;10992;48.170;8.596;2023-05-15T13:10:44;18.00;99.90
21662;DHT22;10992;48.170;8.596;2023-05-15T13:13:11;18.30;99.90
21662;DHT22;10992;48.170;8.596;2023-05-15T13:15:43;18.80;99.90
21662;DHT22;10992;48.170;8.596;2023-05-15T13:18:15;18.90;99.90
21662;DHT22;10992;48.170;8.596;2023-05-15T13:20:47;18.70;99.90
21662;DHT22;10992;48.170;8.596;2023-05-15T13:23:20;19.30;99.90
21662;DHT22;10992;48.170;8.596;2023-05-15T13:25:49;19.90;99.90
21662;DHT22;10992;48.170;8.596;2023-05-15T13:28:17;20.00;99.90
21662;DHT22;10992;48.170;8.596;2023-05-15T13:30:44;19.90;99.90
21662;DHT22;10992;48.170;8.596;2023-05-15T13:33:11;19.20;99.90
21662;DHT22;10992;48.170;8.596;2023-05-15T13:35:41;19.80;99.90
21662;DHT22;10992;48.170;8.596;2023-05-15T13:38:22;20.50;99.90
21662;DHT22;10992;48.170;8.596;2023-05-15T13:40:49;20.40;99.90
21662;DHT22;10992;48.170;8.596;2023-05-15T13:43:16;19.60;99.90
21662;DHT22;10992;48.170;8.596;2023-05-15T13:45:43;20.20;99.90
21662;DHT22;10992;48.170;8.596;2023-05-15T13:48:11;20.30;99.90
21662;DHT22;10992;48.170;8.596;2023-05-15T13:50:38;19.90;99.90
21662;DHT22;10992;48.170;8.596;2023-05-15T13:53:05;19.50;99.90
21662;DHT22;10992;48.170;8.596;2023-05-15T13:55:33;19.50;99.90
21662;DHT22;10992;48.170;8.596;2023-05-15T13:58:00;19.70;99.90
21662;DHT22;10992;48.170;8.596;2023-05-15T14:00:27;19.10;99.90
21662;DHT22;10992;48.170;8.596;2023-05-15T14:02:54;18.50;99.90
21662;DHT22;10992;48.170;8.596;2023-05-15T14:05:21;18.00;99.90
21662;DHT22;10992;48.170;8.596;2023-05-15T14:07:48;17.90;99.90
21662;DHT22;10992;48.170;8.596;2023-05-15T14:10:14;17.00;99.90
21662;DHT22;10992;48.170;8.596;2023-05-15T14:12:41;16.90;99.90
21662;DHT22;10992;48.170;8.596;2023-05-15T14:15:09;16.80;99.90
21662;DHT22;10992;48.170;8.596;2023-05-15T14:17:38;16.30;99.90
21662;DHT22;10992;48.170;8.596;2023-05-15T14:20:06;15.80;99.90
21662;DHT22;10992;48.170;8.596;2023-05-15T14:22:33;15.40;99.90
21662;DHT22;10992;48.170;8.596;2023-05-15T14:25:00;15.10;99.90
21662;DHT22;10992;48.170;8.596;2023-05-15T14:27:27;15.00;99.90
21662;DHT22;10992;48.170;8.596;2023-05-15T14:29:54;14.90;99.90
21662;DHT22;10992;48.170;8.596;2023-05-15T14:32:24;15.00;99.90
21662;DHT22;10992;48.170;8.596;2023-05-15T14:34:51;15.20;99.90
21662;DHT22;10992;48.170;8.596;2023-05-15T14:37:18;15.00;99.90
21662;DHT22;10992;48.170;8.596;2023-05-15T14:39:45;14.60;99.90
21662;DHT22;10992;48.170;8.596;2023-05-15T14:42:12;14.60;99.90
21662;DHT22;10992;48.170;8.596;2023-05-15T14:44:38;14.20;99.90
21662;DHT22;10992;48.170;8.596;2023-05-15T14:47:10;14.10;99.90
21662;DHT22;10992;48.170;8.596;2023-05-15T14:49:40;14.00;99.90
21662;DHT22;10992;48.170;8.596;2023-05-15T14:52:08;13.80;99.90
21662;DHT22;10992;48.170;8.596;2023-05-15T14:54:36;13.70;99.90
21662;DHT22;10992;48.170;8.596;2023-05-15T14:57:03;13.40;99.90
21662;DHT22;10992;48.170;8.596;2023-05-15T14:59:30;13.40;99.90
21662;DHT22;10992;48.170;8.596;2023-05-15T15:01:57;13.50;99.90
21662;DHT22;10992;48.170;8.596;2023-05-15T15:04:24;13.60;99.90
21662;DHT22;10992;48.170;8.596;2023-05-15T15:06:56;13.70;99.90
21662;DHT22;10992;48.170;8.596;2023-05-15T15:09:23;13.70;99.90
21662;DHT22;10992;48.170;8.596;2023-05-15T15:11:51;13.70;99.90
21662;DHT22;10992;48.170;8.596;2023-05-15T15:14:18;13.90;99.90
21662;DHT22;10992;48.170;8.596;2023-05-15T15:16:45;13.90;99.90
21662;DHT22;10992;48.170;8.596;2023-05-15T15:19:13;14.00;99.90
21662;DHT22;10992;48.170;8.596;2023-05-15T15:21:43;14.40;99.90
21662;DHT22;10992;48.170;8.596;2023-05-15T15:24:10;14.80;99.90
21662;DHT22;10992;48.170;8.596;2023-05-15T15:26:37;15.40;99.90
21662;DHT22;10992;48.170;8.596;2023-05-15T15:29:05;15.80;99.90
21662;DHT22;10992;48.170;8.596;2023-05-15T15:31:33;16.10;99.90
21662;DHT22;10992;48.170;8.596;2023-05-15T15:33:59;16.50;99.90
21662;DHT22;10992;48.170;8.596;2023-05-15T15:36:31;16.80;99.90
21662;DHT22;10992;48.170;8.596;2023-05-15T15:38:58;16.90;99.90
21662;DHT22;10992;48.170;8.596;2023-05-15T15:41:24;17.10;99.90
21662;DHT22;10992;48.170;8.596;2023-05-15T15:43:52;16.90;99.90
21662;DHT22;10992;48.170;8.596;2023-05-15T15:46:19;16.90;99.90
21662;DHT22;10992;48.170;8.596;2023-05-15T15:48:46;16.80;99.90
21662;DHT22;10992;48.170;8.596;2023-05-15T15:51:13;16.50;99.90
21662;DHT22;10992;48.170;8.596;2023-05-15T15:53:40;16.10;99.90
21662;DHT22;10992;48.170;8.596;2023-05-15T15:56:07;16.00;99.90
21662;DHT22;10992;48.170;8.596;2023-05-15T15:58:34;16.00;99.90
21662;DHT22;10992;48.170;8.596;2023-05-15T16:01:01;16.20;99.90
21662;DHT22;10992;48.170;8.596;2023-05-15T16:03:28;16.20;99.90
21662;DHT22;10992;48.170;8.596;2023-05-15T16:05:55;16.10;99.90
21662;DHT22;10992;48.170;8.596;2023-05-15T16:08:25;15.60;99.90
21662;DHT22;10992;48.170;8.596;2023-05-15T16:10:52;15.30;99.90